Tiempo atmosférico en la estación meteorológica de Burgo de Osma, Soria (932 m.)



Fecha
DESCASC
Temp. máxima en grados centígrados (hora)
DESCASC
Temp. mínima en grados centígrados (hora)
DESCASC
Temp. media en grados centígrados
DESCASC
Racha de viento máxima en m/sg (hora)
DESCASC
Velocidad máxima media en intervalos de 10 minutos(hora)
DESCASC
Precipitaciones diarias en mm
DESCASC
Precipitaciones de 00:00 a 06:00 en mm
DESCASC
Precipitaciones de 06:00 a 12:00 en mm
DESCASC
Precipitaciones de 12:00 a 18:00 en mm
DESCASC
Precipitaciones de 18:00 a 24:00 en mm
DESCASC
31-03-2020 5.3 (19:20) -1.8 (06:20) 1.8 12.78 (15:20) 9.17 (16:30) 1.8 0 0.2 0.2 1.4
29-03-2020 16.3 (17:20) -1.7 (-00:0) 7.3 11.39 (17:50) 6.94 (17:00) 0 0 0 0 0
28-03-2020 16.2 (15:40) -4.3 (-00:0) 6 6.94 (14:00) 3.61 (15:50) 0 0 0 0 0
27-03-2020 11.8 (16:00) -4 (-00:0) 3.9 10.28 (14:10) 6.67 (12:50) 0 0 0 0 0
26-03-2020 9.8 (15:40) -5.1 (-00:0) 2.4 12.5 (16:20) 8.06 (11:40) 0 0 0 0 0
25-03-2020 15.5 (16:20) -1 (-00:0) 7.3 13.89 (16:00) 8.06 (16:00) 0 0 0 0 0
24-03-2020 12.9 (17:10) 1.5 (00:00) 7.2 11.67 (12:40) 7.78 (12:00) 0 0 0 0 0
23-03-2020 13.3 (15:10) 3.7 (00:00) 8.5 10.83 (15:40) 8.06 (15:40) 0 0 0 0 0
22-03-2020 14.4 (15:00) 4 (23:50) 9.2 12.22 (15:10) 8.89 (16:10) 0.4 0 0.4 0 0
21-03-2020 11.4 (14:50) 6.4 (00:00) 8.9 10.28 (01:20) 6.94 (09:40) 0 0 0 0 0
20-03-2020 13.2 (15:10) 5.9 (00:00) 9.5 11.11 (14:10) 7.22 (14:10) 0.2 0.2 0 0 0
19-03-2020 15.2 (16:20) 5.6 (00:00) 10.4 9.17 (13:00) 6.67 (12:00) 0 0 0 0 0
18-03-2020 17.3 (15:00) 5.1 (00:00) 11.2 8.61 (13:30) 5.56 (12:50) 0 0 0 0 0
17-03-2020 12.3 (16:50) 6.2 (00:00) 9.3 13.33 (13:20) 9.44 (01:10) 1 0 1 0 0
16-03-2020 7.4 (23:40) -0.1 (00:00) 3.7 16.11 (23:50) 9.72 (23:40) 42.8 15.6 5.2 15.6 6.4
15-03-2020 19.9 (12:00) -1.3 (-00:0) 9.3 16.94 (21:10) 8.89 (17:50) 23.8 0 0 0.6 23.2
14-03-2020 19 (17:00) 0.5 (00:00) 9.8 4.72 (12:50) 2.78 (18:30) 0 0 0 0 0
13-03-2020 20.4 (15:50) 6.2 (08:10) 13.3 7.22 (14:00) 5.28 (11:00) 0 0 0 0 0
12-03-2020 25.1 (16:00) 2.9 (00:00) 14 8.06 (16:10) 4.72 (16:50) 0 0 0 0 0
11-03-2020 23.2 (15:50) 0 (00:00) 11.6 9.17 (15:20) 5.56 (15:20) 0 0 0 0 0
10-03-2020 19 (17:40) 2.6 (00:00) 10.8 7.78 (13:20) 5.83 (13:20) 0 0 0 0 0
09-03-2020 12.6 (16:50) 3.8 (00:00) 8.2 14.17 (14:00) 10 (14:40) 0 0 0 0 0
08-03-2020 12.6 (14:30) -3.6 (-00:0) 4.5 12.22 (23:30) 8.33 (23:20) 0 0 0 0 0
07-03-2020 11.2 (15:00) 0.2 (00:00) 5.7 11.67 (16:40) 8.89 (16:40) 0 0 0 0 0
06-03-2020 7.3 (16:40) 2.2 (00:00) 4.8 19.72 (11:40) 13.89 (11:40) 1.2 1.2 0 0 0
05-03-2020 10.7 (15:10) 4.8 (00:00) 7.8 21.67 (13:10) 15 (13:20) 0.8 0 0.8 0 0
04-03-2020 12.3 (12:30) 8.7 (00:50) 10.5 14.17 (06:10) 10.28 (06:10) 0.4 0.4 0 0 0

Gráficas

Temp. máximas Temp. mínimas Temp. medias Precipitaciones Rachas de viento máximas Velocidades máximas media en intervalos de 10 minutos

Datos horarios

Fecha y hora oficial Temperatura (ºC) Velocidad del viento (km/h) Dirección del viento Racha (km/h) Dirección de racha Precipitación (mm) Presión (hPa) Tendencia (hPa) Humedad (%)
2020-04-02 23:00:00 5.8 9 Norte 20 Norte 0 -- -- 71
2020-04-02 22:00:00 6.2 10 Norte 15 Noroeste 0 -- -- 74
2020-04-02 21:00:00 7.7 8 Norte 11 Norte 0 -- -- 73
2020-04-02 20:00:00 8.9 6 Norte 12 Norte 0 -- -- 69
2020-04-02 19:00:00 8.9 5 Norte 17 Nordeste 0 -- -- 70
2020-04-02 18:00:00 9.9 5 Nordeste 8 Nordeste 0 -- -- 68
2020-04-02 17:00:00 10.7 3 Norte 10 Norte 0 -- -- 67
2020-04-02 16:00:00 9.6 6 Norte 13 Noroeste 0 -- -- 74
2020-04-02 15:00:00 8.3 9 Noroeste 19 Oeste 0.2 -- -- 82
2020-04-02 14:00:00 8.5 6 Oeste 14 Oeste 0.4 -- -- 83
2020-04-02 13:00:00 7.8 9 Oeste 14 Oeste 0 -- -- 86
2020-04-02 12:00:00 7.5 6 Oeste 9 Oeste 0 -- -- 86
2020-04-02 11:00:00 6.3 3 Sudoeste 5 Sudoeste 0 -- -- 91
2020-04-02 10:00:00 5.9 0 Calma 7 Nordeste 0.2 -- -- 94
2020-04-02 09:00:00 5.1 4 Nordeste 7 Nordeste 0 -- -- 96
2020-04-02 08:00:00 4.6 3 Este 5 Nordeste 0 -- -- 96
2020-04-02 07:00:00 4.7 3 Nordeste 5 Este 0 -- -- 97
2020-04-02 06:00:00 5 3 Este 6 Este 0 -- -- 97
2020-04-02 05:00:00 4.9 4 Este 8 Este 0 -- -- 97
2020-04-02 04:00:00 4.2 5 Este 6 Este 0 -- -- 96
2020-04-02 03:00:00 5 4 Este 9 Este 0 -- -- 96
2020-04-02 02:00:00 5.3 6 Este 15 Este 0 -- -- 94
2020-04-02 01:00:00 5.6 9 Nordeste 14 Noroeste 0.4 -- -- 93
2020-04-02 00:00:00 5.3 9 Noroeste 13 Noroeste 5.2 -- -- 95
2020-04-01 23:00:00 6 0 Calma 6 Este 3.6 -- -- 96
2020-04-01 22:00:00 6 4 Nordeste 13 Este 6.4 -- -- 95
2020-04-01 21:00:00 6.3 6 Este 21 Este 2.2 -- -- 93
2020-04-01 20:00:00 6.5 17 Este 23 Este 2 -- -- 92
2020-04-01 19:00:00 7.3 10 Este 31 Sudeste 2.4 -- -- 88
2020-04-01 18:00:00 9.9 19 Este 27 Este 0 -- -- 73
2020-04-01 17:00:00 9.9 20 Este 33 Este 0 -- -- 74
2020-04-01 16:00:00 10 21 Este 31 Este 0 -- -- 78
2020-04-01 15:00:00 10.3 21 Este 29 Este 0 -- -- 75
2020-04-01 14:00:00 9.8 20 Este 30 Este 0 -- -- 79
2020-04-01 13:00:00 7.4 19 Este 27 Este 0.2 -- -- 91
2020-04-01 12:00:00 6.7 17 Este 25 Este 0.2 -- -- 90
2020-04-01 11:00:00 6 16 Este 22 Este 0.2 -- -- 91
2020-04-01 10:00:00 5.2 13 Este 19 Este 0.2 -- -- 93
2020-04-01 09:00:00 4.5 13 Este 19 Este 0 -- -- 94
2020-04-01 08:00:00 4.2 12 Este 17 Este 0 -- -- 94
2020-04-01 07:00:00 4 10 Este 17 Este 0 -- -- 94
2020-04-01 06:00:00 4.4 12 Este 19 Este 0.4 -- -- 95
2020-04-01 05:00:00 4.5 15 Este 32 Este 2.4 -- -- 95
2020-04-01 04:00:00 4.7 21 Este 37 Este 0.6 -- -- 94
2020-04-01 03:00:00 4.8 18 Sudeste 28 Este 0.2 -- -- 94
2020-04-01 02:00:00 4.8 17 Este 38 Este 0.4 -- -- 94
2020-04-01 01:00:00 4.7 22 Este 32 Este 0.2 -- -- 94
2020-04-01 00:00:00 4.5 16 Este 32 Este 1.2 -- -- 94
2020-03-31 23:00:00 4.5 19 Este 35 Este 0.2 -- -- 93
2020-03-31 22:00:00 4.4 21 Este 37 Este 0 -- -- 92
2020-03-31 21:00:00 4.7 26 Este 36 Este 0 -- -- 91
2020-03-31 20:00:00 5 22 Este 37 Este 0 -- -- 90
2020-03-31 19:00:00 5.1 22 Este 35 Este 0 -- -- 88
2020-03-31 18:00:00 4.8 27 Este 40 Este 0 -- -- 87
2020-03-31 17:00:00 4.8 28 Este 45 Este 0 -- -- 85
2020-03-31 16:00:00 3.9 29 Este 46 Este 0 -- -- 87
2020-03-31 15:00:00 2.7 29 Este 42 Este 0 -- -- 90
2020-03-31 14:00:00 2.2 25 Este 40 Este 0 -- -- 91
2020-03-31 13:00:00 1.1 24 Este 37 Este 0.2 -- -- 93
2020-03-31 12:00:00 0.9 21 Este 32 Este 0.2 -- -- 91
2020-03-31 11:00:00 0.3 24 Este 35 Este 0 -- -- 89
2020-03-31 10:00:00 -0.4 21 Este 37 Este 0 -- -- 89
2020-03-31 09:00:00 -0.8 27 Este 42 Este 0 -- -- 89
2020-03-31 08:00:00 -1.4 22 Este 35 Este 0 -- -- 90
2020-03-31 07:00:00 -1.6 17 Este 30 Este 0 -- -- 90
2020-03-31 06:00:00 -1.6 20 Este 29 Este 0 -- -- 89
2020-03-31 05:00:00 -1.4 18 Este 33 Este 0 -- -- 91
2020-03-31 04:00:00 -1.5 14 Este 31 Este 0 -- -- 92
2020-03-31 03:00:00 -1.5 17 Este 24 Este 0 -- -- 93
2020-03-31 02:00:00 -1.2 14 Este 22 Este 0 -- -- 92
2020-03-31 01:00:00 -0.6 14 Este 32 Sudeste 0 -- -- 90
2020-03-31 00:00:00 0.3 25 Este 39 Este 0 -- -- 76
2020-03-30 23:00:00 1.6 23 Este 36 Este 0 -- -- 60
2020-03-30 22:00:00 2 18 Este 30 Este 0 -- -- 55
2020-03-30 21:00:00 2.6 14 Este 31 Este 0 -- -- 53
2020-03-30 20:00:00 3.7 12 Este 19 Este 0 -- -- 51
2020-03-30 19:00:00 4.5 9 Este 17 Este 0 -- -- 49
2020-03-30 18:00:00 4.9 4 Norte 15 Este 0 -- -- 48
2020-03-30 17:00:00 4.8 4 Norte 9 Norte 0 -- -- 55
2020-03-30 16:00:00 4.5 2 Nordeste 12 Sur 0 -- -- 57
2020-03-30 15:00:00 4.1 0 Calma 10 Sur 0 -- -- 65
2020-03-30 14:00:00 2.9 5 Sur 10 Sur 0 -- -- 74
2020-03-30 13:00:00 0.8 6 Sur 10 Sur 0.2 -- -- 84
2020-03-30 12:00:00 0.8 7 Sur 13 Sur 0.8 -- -- 89
2020-03-30 11:00:00 0.1 2 Sur 7 Sur 0.6 -- -- 88
2020-03-30 10:00:00 -0.7 0 Calma -- -- 0 -- -- 94
2020-03-30 09:00:00 -1.2 0 Calma 12 Norte 0.2 -- -- 93
2020-03-30 08:00:00 0 9 Norte 18 Norte 0.6 -- -- 92
2020-03-30 07:00:00 1.6 6 Norte 14 Norte 0.4 -- -- 86
2020-03-30 06:00:00 2 0 Calma 2 Sudeste 0 -- -- 88
2020-03-30 05:00:00 1.2 0 Calma 3 Este 0 -- -- 87
2020-03-30 04:00:00 0.8 0 Calma 3 Sudeste 0 -- -- 86
2020-03-30 03:00:00 0.8 2 Este 3 Nordeste 0 -- -- 85
2020-03-30 02:00:00 1.2 2 Este 5 Este 0 -- -- 81
2020-03-30 01:00:00 3.6 0 Calma 14 Norte 0 -- -- 74
2020-03-30 00:00:00 5.4 9 Noroeste 14 Noroeste 0 -- -- 67
2020-03-29 23:00:00 5.6 6 Norte 13 Norte 0 -- -- 64
2020-03-29 22:00:00 7.6 10 Norte 22 Norte 0 -- -- 56
2020-03-29 21:00:00 9.3 10 Norte 21 Norte 0 -- -- 49
2020-03-29 20:00:00 12.7 15 Norte 33 Oeste 0 -- -- 40
2020-03-29 19:00:00 14.4 24 Oeste 35 Oeste 0 -- -- 30
2020-03-29 18:00:00 15.7 23 Oeste 41 Oeste 0 -- -- 29
2020-03-29 17:00:00 16 25 Oeste 40 Oeste 0 -- -- 31
2020-03-29 16:00:00 15.7 21 Oeste 39 Oeste 0 -- -- 33
2020-03-29 15:00:00 15.2 24 Oeste 40 Oeste 0 -- -- 36
2020-03-29 14:00:00 14.5 15 Noroeste 36 Oeste 0 -- -- 41
2020-03-29 13:00:00 13.7 16 Oeste 25 Oeste 0 -- -- 44
2020-03-29 12:00:00 11.2 12 Oeste 21 Oeste 0 -- -- 52
2020-03-29 11:00:00 8.5 17 Oeste 23 Oeste 0 -- -- 60
2020-03-29 10:00:00 3.2 2 Sudeste 4 Sudeste 0 -- -- 81
2020-03-29 09:00:00 -0.2 0 Calma 2 Este 0 -- -- 93
2020-03-29 08:00:00 -1.4 0 Calma 2 Este 0 -- -- 93
2020-03-29 07:00:00 -1.3 0 Calma 4 Nordeste 0 -- -- 93
2020-03-29 06:00:00 -1 2 Nordeste 5 Nordeste 0 -- -- 92
2020-03-29 05:00:00 -0.5 2 Este 5 Este 0 -- -- 91
2020-03-29 03:00:00 1.7 0 Calma 4 Sudeste 0 -- -- 85
2020-03-29 01:00:00 2.4 2 Nordeste 4 Este 0 -- -- 81
2020-03-29 00:00:00 4.2 2 Este 7 Sudeste 0 -- -- 75
2020-03-28 23:00:00 5.9 3 Norte 5 Noroeste 0 -- -- 67
2020-03-28 22:00:00 7.7 0 Calma 4 Noroeste 0 -- -- 58
2020-03-28 21:00:00 8.6 2 Nordeste 5 Nordeste 0 -- -- 54
2020-03-28 20:00:00 10.7 0 Calma 13 Sudeste 0 -- -- 44
2020-03-28 19:00:00 13.4 11 Sur 24 Sudeste 0 -- -- 37
2020-03-28 18:00:00 15.7 7 Sudeste 25 Este 0 -- -- 33
2020-03-28 17:00:00 15.6 9 Sur 25 Este 0 -- -- 35
2020-03-28 16:00:00 15.2 11 Sudeste 22 Sudeste 0 -- -- 33
2020-03-28 15:00:00 15.3 12 Este 23 Sudeste 0 -- -- 31
2020-03-28 14:00:00 14.2 12 Sudeste 25 Sudeste 0 -- -- 38
2020-03-28 13:00:00 13.3 10 Sudeste 22 Este 0 -- -- 36
2020-03-28 12:00:00 13.2 3 Sudeste 10 Sur 0 -- -- 39
2020-03-28 11:00:00 11 2 Noroeste 8 Este 0 -- -- 43
2020-03-28 10:00:00 7.7 4 Este 7 Este 0 -- -- 53
2020-03-28 09:00:00 1.5 3 Este 6 Este 0 -- -- 71
2020-03-28 08:00:00 -3.1 0 Calma 6 Este 0 -- -- 87
2020-03-28 07:00:00 -4.2 2 Este 5 Este 0 -- -- 89
2020-03-28 06:00:00 -4 3 Este 4 Nordeste 0 -- -- 89
2020-03-28 05:00:00 -3.3 2 Nordeste 4 Este 0 -- -- 88
2020-03-28 04:00:00 -3 0 Calma 5 Este 0 -- -- 86
2020-03-28 03:00:00 -2.3 3 Este 9 Nordeste 0 -- -- 84
2020-03-28 02:00:00 -1.6 4 Este 7 Este 0 -- -- 81
2020-03-28 01:00:00 -0.1 0 Calma 4 Nordeste 0 -- -- 75
2020-03-28 00:00:00 1 2 Este 3 Este 0 -- -- 69
2020-03-27 23:00:00 2.7 0 Calma 11 Este 0 -- -- 63
2020-03-27 22:00:00 2.3 0 Calma 10 Nordeste 0 -- -- 63
2020-03-27 21:00:00 4 8 Nordeste 13 Este 0 -- -- 54
2020-03-27 20:00:00 6.6 9 Sudeste 22 Sudeste 0 -- -- 44
2020-03-27 19:00:00 9.7 14 Sudeste 30 Sudeste 0 -- -- 32
2020-03-27 18:00:00 11.2 12 Sudeste 30 Sudeste 0 -- -- 31
2020-03-27 17:00:00 11.3 15 Sudeste 33 Sudeste 0 -- -- 33
2020-03-27 16:00:00 11.8 14 Este 34 Este 0 -- -- 35
2020-03-27 15:00:00 10.7 19 Sudeste 37 Sudeste 0 -- -- 34
2020-03-27 14:00:00 10.1 20 Sudeste 34 Este 0 -- -- 40
2020-03-27 13:00:00 8.8 21 Este 37 Sudeste 0 -- -- 43
2020-03-27 12:00:00 7.4 21 Sudeste 36 Este 0 -- -- 47
2020-03-27 11:00:00 5.6 20 Este 33 Este 0 -- -- 55
2020-03-27 10:00:00 4 23 Este 31 Este 0 -- -- 59
2020-03-27 09:00:00 1.4 9 Este 15 Este 0 -- -- 72
2020-03-27 08:00:00 -1.8 5 Este 13 Nordeste 0 -- -- 78
2020-03-27 07:00:00 -4 0 Calma 4 Nordeste 0 -- -- 87
2020-03-27 06:00:00 -3.7 0 Calma 6 Nordeste 0 -- -- 85
2020-03-27 05:00:00 -2.8 0 Calma 6 Nordeste 0 -- -- 83
2020-03-27 04:00:00 -2.1 0 Calma 8 Este 0 -- -- 79
2020-03-27 03:00:00 -0.5 3 Este 17 Este 0 -- -- 71
2020-03-27 02:00:00 1.5 10 Este 21 Este 0 -- -- 65
2020-03-27 01:00:00 2 4 Este 9 Este 0 -- -- 67
2020-03-27 00:00:00 2.6 8 Nordeste 15 Norte 0 -- -- 62
2020-03-26 23:00:00 2.3 5 Este 13 Este 0 -- -- 67
2020-03-26 22:00:00 2.9 2 Norte 5 Norte 0 -- -- 64
2020-03-26 21:00:00 4.2 3 Nordeste 14 Norte 0 -- -- 59
2020-03-26 20:00:00 4.6 10 Noroeste 27 Noroeste 0 -- -- 55
2020-03-26 19:00:00 6.5 18 Noroeste 37 Noroeste 0 -- -- 49
2020-03-26 18:00:00 8.4 22 Noroeste 38 Noroeste 0 -- -- 44
2020-03-26 17:00:00 9.1 28 Noroeste 45 Noroeste 0 -- -- 44
2020-03-26 16:00:00 9.6 23 Noroeste 43 Noroeste 0 -- -- 45
2020-03-26 15:00:00 7.7 27 Noroeste 37 Noroeste 0 -- -- 50
2020-03-26 14:00:00 8.8 12 Norte 44 Noroeste 0 -- -- 46
2020-03-26 13:00:00 8.6 25 Noroeste 43 Noroeste 0 -- -- 45
2020-03-26 12:00:00 8.6 23 Noroeste 45 Noroeste 0 -- -- 51
2020-03-26 11:00:00 7.6 23 Noroeste 36 Noroeste 0 -- -- 51
2020-03-26 10:00:00 5.5 16 Oeste 30 Oeste 0 -- -- 65
2020-03-26 09:00:00 1.8 10 Noroeste 16 Noroeste 0 -- -- 74
2020-03-26 08:00:00 -1.8 7 Oeste 9 Oeste 0 -- -- 83
2020-03-26 07:00:00 -4.5 2 Sur 5 Sudoeste 0 -- -- 87
2020-03-26 06:00:00 -3.9 0 Calma 9 Noroeste 0 -- -- 85
2020-03-26 05:00:00 -4.2 0 Calma 5 Nordeste 0 -- -- 89
2020-03-26 04:00:00 -3.3 0 Calma 4 Este 0 -- -- 83
2020-03-26 03:00:00 -1.3 0 Calma 19 Noroeste 0 -- -- 76
2020-03-26 02:00:00 -0.2 6 Oeste 17 Noroeste 0 -- -- 70
2020-03-26 01:00:00 1.2 2 Oeste 7 Noroeste 0 -- -- 64
2020-03-26 00:00:00 0.8 3 Este 8 Sudeste 0 -- -- 89
2020-03-25 23:00:00 3.7 8 Norte 12 Norte 0 -- -- 76
2020-03-25 22:00:00 4.7 0 Calma 5 Este 0 -- -- 83
2020-03-25 21:00:00 7.1 0 Calma 9 Norte 0 -- -- 75
2020-03-25 20:00:00 8.8 2 Este 18 Este 0 -- -- 67
2020-03-25 19:00:00 11.6 16 Este 30 Nordeste 0 -- -- 59
2020-03-25 18:00:00 14.5 22 Norte 38 Noroeste 0 -- -- 34
2020-03-25 17:00:00 15 27 Noroeste 49 Oeste 0 -- -- 26
2020-03-25 16:00:00 14.7 29 Oeste 50 Oeste 0 -- -- 37
2020-03-25 15:00:00 14.4 24 Oeste 40 Oeste 0 -- -- 39
2020-03-25 14:00:00 13.5 23 Oeste 40 Noroeste 0 -- -- 48
2020-03-25 13:00:00 12.7 18 Noroeste 30 Oeste 0 -- -- 51
2020-03-25 12:00:00 11.9 13 Oeste 30 Oeste 0 -- -- 56
2020-03-25 11:00:00 10.6 13 Oeste 22 Oeste 0 -- -- 68
2020-03-25 10:00:00 8.1 6 Sudoeste 11 Sudoeste 0 -- -- 74
2020-03-25 09:00:00 3.6 0 Calma 3 Este 0 -- -- 92
2020-03-25 08:00:00 0.1 0 Calma 3 Oeste 0 -- -- 96
2020-03-25 07:00:00 -0.6 2 Oeste 2 Oeste 0 -- -- 96
2020-03-25 06:00:00 -0.9 2 Nordeste 3 Nordeste 0 -- -- 96
2020-03-25 05:00:00 -0.8 0 Calma 6 Sudeste 0 -- -- 96
2020-03-25 04:00:00 -0.2 3 Sudeste 5 Este 0 -- -- 96
2020-03-25 03:00:00 0.4 4 Nordeste 5 Nordeste 0 -- -- 95
2020-03-25 02:00:00 0.4 3 Este 6 Este 0 -- -- 94
2020-03-25 01:00:00 1.2 0 Calma 8 Nordeste 0 -- -- 93
2020-03-25 00:00:00 1.5 3 Nordeste 7 Nordeste 0 -- -- 90
2020-03-24 23:00:00 3.1 2 Este 6 Nordeste 0 -- -- 87
2020-03-24 22:00:00 4.5 0 Calma 4 Nordeste 0 -- -- 82
2020-03-24 21:00:00 5.8 0 Calma 14 Este 0 -- -- 76
2020-03-24 20:00:00 8.2 13 Sudeste 23 Sudeste 0 -- -- 68
2020-03-24 19:00:00 10 16 Sudeste 28 Este 0 -- -- 62
2020-03-24 18:00:00 10.5 21 Este 32 Este 0 -- -- 62
2020-03-24 17:00:00 11.4 21 Sudeste 31 Este 0 -- -- 57
2020-03-24 16:00:00 11.2 21 Este 32 Este 0 -- -- 60
2020-03-24 15:00:00 11.3 21 Este 35 Este 0 -- -- 60
2020-03-24 14:00:00 11.1 24 Sudeste 41 Este 0 -- -- 58
2020-03-24 13:00:00 10 28 Este 42 Este 0 -- -- 62
2020-03-24 12:00:00 10.3 28 Este 42 Este 0 -- -- 61
2020-03-24 11:00:00 9.8 26 Este 41 Este 0 -- -- 65
2020-03-24 10:00:00 8.4 22 Este 33 Este 0 -- -- 76
2020-03-24 09:00:00 7 18 Este 24 Este 0 -- -- 83
2020-03-24 08:00:00 4.8 4 Este 18 Este 0 -- -- 92
2020-03-24 07:00:00 6.1 15 Este 22 Este 0 -- -- 90
2020-03-24 06:00:00 6.6 12 Este 25 Este 0 -- -- 88
2020-03-24 05:00:00 7.3 10 Este 18 Este 0 -- -- 87
2020-03-24 04:00:00 6.7 12 Este 19 Este 0 -- -- 89
2020-03-24 03:00:00 7.3 12 Este 25 Este 0 -- -- 87
2020-03-24 02:00:00 7.4 14 Este 25 Este 0 -- -- 87
2020-03-24 01:00:00 7.6 16 Este 26 Este 0 -- -- 88
2020-03-24 00:00:00 7.9 18 Este 29 Este 0 -- -- 86
2020-03-23 23:00:00 8 17 Este 22 Este 0 -- -- 85
2020-03-23 22:00:00 7.2 10 Este 25 Este 0 -- -- 85
2020-03-23 21:00:00 9.1 16 Este 24 Este 0 -- -- 75
2020-03-23 20:00:00 9.4 14 Este 23 Este 0 -- -- 73
2020-03-23 19:00:00 9.9 17 Este 34 Este 0 -- -- 71
2020-03-23 18:00:00 11.1 17 Este 36 Este 0 -- -- 67
2020-03-23 17:00:00 11.7 25 Este 36 Este 0 -- -- 66
2020-03-23 16:00:00 12.3 27 Este 39 Este 0 -- -- 63
2020-03-23 15:00:00 12.3 20 Este 35 Este 0 -- -- 62
2020-03-23 14:00:00 10.9 23 Este 33 Este 0 -- -- 65
2020-03-23 13:00:00 11.3 23 Este 34 Este 0 -- -- 64
2020-03-23 12:00:00 11.3 19 Este 31 Este 0 -- -- 63
2020-03-23 11:00:00 10.4 19 Este 35 Este 0 -- -- 67
2020-03-23 10:00:00 9.1 25 Este 35 Este 0 -- -- 74
2020-03-23 09:00:00 7.7 18 Este 27 Este 0 -- -- 80
2020-03-23 08:00:00 6.5 11 Este 20 Este 0 -- -- 86
2020-03-23 07:00:00 5.5 8 Este 12 Este 0 -- -- 88
2020-03-23 06:00:00 5.7 9 Este 14 Este 0 -- -- 88
2020-03-23 05:00:00 4.9 8 Nordeste 14 Nordeste 0 -- -- 89
2020-03-23 04:00:00 5.9 9 Nordeste 18 Este 0 -- -- 86
2020-03-23 03:00:00 5.7 12 Este 16 Este 0 -- -- 87
2020-03-23 02:00:00 4.4 5 Este 8 Este 0 -- -- 91
2020-03-23 01:00:00 3.7 0 Calma 6 Este 0 -- -- 89
2020-03-23 00:00:00 4.3 2 Este 9 Este 0 -- -- 88
2020-03-22 23:00:00 4.6 5 Nordeste 9 Nordeste 0 -- -- 87
2020-03-22 22:00:00 5 5 Nordeste 13 Este 0 -- -- 83
2020-03-22 21:00:00 7.3 10 Este 15 Este 0 -- -- 71
2020-03-22 20:00:00 7.9 6 Este 29 Este 0 -- -- 69
2020-03-22 19:00:00 10.8 23 Este 38 Este 0 -- -- 58
2020-03-22 18:00:00 11.7 30 Este 41 Este 0 -- -- 56
2020-03-22 17:00:00 13.5 27 Este 42 Este 0 -- -- 53
2020-03-22 16:00:00 14.2 22 Este 44 Este 0 -- -- 50
2020-03-22 15:00:00 14.4 18 Sudeste 35 Este 0 -- -- 50
2020-03-22 14:00:00 13.7 18 Sudeste 31 Sudeste 0 -- -- 57
2020-03-22 13:00:00 12.9 13 Sudeste 26 Este 0 -- -- 59
2020-03-22 12:00:00 10.6 14 Este 25 Sudeste 0 -- -- 67
2020-03-22 11:00:00 10.5 11 Este 18 Este 0 -- -- 76
2020-03-22 10:00:00 7.4 3 Nordeste 5 Nordeste 0 -- -- 87
2020-03-22 09:00:00 6.5 4 Sudeste 5 Sudeste 0 -- -- 91
2020-03-22 08:00:00 5.9 3 Este 6 Este 0.2 -- -- 93
2020-03-22 07:00:00 6 6 Sudeste 9 Este 0.2 -- -- 92
2020-03-22 06:00:00 6.1 8 Este 10 Este 0 -- -- 91
2020-03-22 05:00:00 6.2 5 Este 9 Este 0 -- -- 91
2020-03-22 04:00:00 6.1 5 Nordeste 9 Este 0 -- -- 91
2020-03-22 03:00:00 6.1 5 Este 11 Nordeste 0 -- -- 91
2020-03-22 02:00:00 6.2 4 Nordeste 13 Este 0 -- -- 91
2020-03-22 01:00:00 5.9 4 Nordeste 11 Este 0 -- -- 92
2020-03-22 00:00:00 6.5 8 Nordeste 17 Este 0 -- -- 90
2020-03-21 23:00:00 6.4 6 Este 12 Nordeste 0 -- -- 91
2020-03-21 22:00:00 6.6 6 Nordeste 19 Sudeste 0 -- -- 89
2020-03-21 21:00:00 7.9 11 Sudeste 18 Sudeste 0 -- -- 85
2020-03-21 20:00:00 8.4 11 Sudeste 20 Sudeste 0 -- -- 81
2020-03-21 19:00:00 9.2 14 Sudeste 22 Este 0 -- -- 77
2020-03-21 18:00:00 9.4 15 Sudeste 24 Sudeste 0 -- -- 77
2020-03-21 17:00:00 10 17 Sudeste 28 Sudeste 0 -- -- 73
2020-03-21 16:00:00 11.2 15 Sudeste 26 Este 0 -- -- 67
2020-03-21 15:00:00 11.3 17 Sudeste 26 Sudeste 0 -- -- 65
2020-03-21 14:00:00 10.1 19 Sudeste 28 Sudeste 0 -- -- 68
2020-03-21 13:00:00 9.8 18 Sudeste 28 Sudeste 0 -- -- 69
2020-03-21 12:00:00 9 22 Sudeste 32 Sudeste 0 -- -- 73
2020-03-21 11:00:00 9 25 Este 37 Este 0 -- -- 76
2020-03-21 10:00:00 8.5 24 Este 33 Este 0 -- -- 78
2020-03-21 09:00:00 7.6 22 Este 30 Este 0 -- -- 84
2020-03-21 08:00:00 6.9 13 Este 22 Este 0 -- -- 89
2020-03-21 07:00:00 7.1 14 Este 21 Este 0 -- -- 85
2020-03-21 06:00:00 7.2 9 Este 21 Sudeste 0 -- -- 88
2020-03-21 05:00:00 7.3 14 Este 22 Sudeste 0 -- -- 87
2020-03-21 04:00:00 7.4 15 Este 28 Este 0 -- -- 87
2020-03-21 03:00:00 7.6 15 Este 27 Este 0 -- -- 85
2020-03-21 02:00:00 8 17 Este 37 Este 0 -- -- 84
2020-03-21 01:00:00 8.7 24 Este 33 Este 0 -- -- 84
2020-03-21 00:00:00 8.2 10 Este 14 Este 0 -- -- 82
2020-03-20 23:00:00 7.8 10 Este 16 Este 0 -- -- 83
2020-03-20 22:00:00 7.3 6 Nordeste 12 Este 0 -- -- 84
2020-03-20 21:00:00 6.9 0 Calma 14 Sudeste 0 -- -- 85
2020-03-20 20:00:00 8.8 10 Sudeste 25 Sudeste 0 -- -- 76
2020-03-20 19:00:00 9.7 14 Sur 29 Sur 0 -- -- 72
2020-03-20 18:00:00 11.1 15 Sudeste 34 Sudeste 0 -- -- 69
2020-03-20 17:00:00 11 24 Sudeste 39 Sudeste 0 -- -- 68
2020-03-20 16:00:00 12.4 22 Sudeste 40 Sudeste 0 -- -- 65
2020-03-20 15:00:00 13.1 20 Sudeste 40 Este 0 -- -- 62
2020-03-20 14:00:00 12.2 25 Este 35 Sudeste 0 -- -- 65
2020-03-20 13:00:00 11.8 22 Sudeste 35 Sudeste 0 -- -- 67
2020-03-20 12:00:00 10.7 25 Este 34 Sudeste 0 -- -- 72
2020-03-20 11:00:00 8.8 20 Este 30 Este 0 -- -- 81
2020-03-20 10:00:00 8.1 18 Sudeste 29 Sudeste 0 -- -- 83
2020-03-20 09:00:00 7.6 17 Sudeste 25 Sudeste 0 -- -- 84
2020-03-20 08:00:00 7 16 Este 31 Este 0 -- -- 88
2020-03-20 07:00:00 7.1 15 Este 24 Este 0 -- -- 87
2020-03-20 06:00:00 7.6 19 Sudeste 26 Sudeste 0 -- -- 84
2020-03-20 05:00:00 7.2 17 Sudeste 26 Este 0 -- -- 88
2020-03-20 04:00:00 6.5 7 Este 19 Este 0.2 -- -- 90
2020-03-20 03:00:00 6.1 8 Este 18 Este 0 -- -- 89
2020-03-20 02:00:00 6.1 8 Nordeste 13 Nordeste 0 -- -- 86
2020-03-20 01:00:00 6.2 7 Este 13 Este 0 -- -- 85
2020-03-20 00:00:00 6.3 10 Este 15 Este 0 -- -- 83
2020-03-19 23:00:00 6.8 10 Este 25 Este 0 -- -- 79
2020-03-19 22:00:00 8 16 Este 21 Este 0 -- -- 74
2020-03-19 21:00:00 8.8 9 Este 23 Este 0 -- -- 73
2020-03-19 20:00:00 9.9 12 Este 22 Este 0 -- -- 68
2020-03-19 19:00:00 12.8 17 Este 27 Este 0 -- -- 54
2020-03-19 18:00:00 14.6 17 Este 26 Este 0 -- -- 50
2020-03-19 17:00:00 14.1 18 Este 32 Este 0 -- -- 48
2020-03-19 16:00:00 14.8 23 Este 30 Este 0 -- -- 41
2020-03-19 15:00:00 14.8 21 Este 31 Este 0 -- -- 46
2020-03-19 14:00:00 13.7 21 Este 31 Este 0 -- -- 48
2020-03-19 13:00:00 12.8 23 Este 33 Este 0 -- -- 47
2020-03-19 12:00:00 12.1 24 Este 32 Este 0 -- -- 53
2020-03-19 11:00:00 10.8 19 Este 30 Este 0 -- -- 70
2020-03-19 10:00:00 7.9 16 Este 24 Este 0 -- -- 91
2020-03-19 09:00:00 6.4 10 Este 16 Este 0 -- -- 96
2020-03-19 08:00:00 5.7 7 Este 13 Este 0 -- -- 96
2020-03-19 07:00:00 5.7 5 Nordeste 8 Este 0 -- -- 96
2020-03-19 06:00:00 5.7 3 Este 10 Este 0 -- -- 95
2020-03-19 05:00:00 5.9 5 Nordeste 13 Este 0 -- -- 94
2020-03-19 04:00:00 6.8 7 Este 15 Este 0 -- -- 94
2020-03-19 03:00:00 6 3 Este 13 Este 0 -- -- 93
2020-03-19 02:00:00 6.1 3 Este 6 Este 0 -- -- 94
2020-03-19 01:00:00 6.2 2 Este 9 Nordeste 0 -- -- 93
2020-03-19 00:00:00 7.4 4 Este 9 Este 0 -- -- 91
2020-03-18 23:00:00 8 3 Este 5 Este 0 -- -- 91
2020-03-18 22:00:00 8.5 3 Nordeste 10 Este 0 -- -- 88
2020-03-18 21:00:00 9.8 7 Este 14 Este 0 -- -- 81
2020-03-18 20:00:00 11.1 9 Este 15 Sudeste 0 -- -- 75
2020-03-18 19:00:00 13 10 Este 19 Este 0 -- -- 68
2020-03-18 18:00:00 14.7 15 Este 23 Este 0 -- -- 61
2020-03-18 17:00:00 14.7 18 Este 26 Este 0 -- -- 56
2020-03-18 16:00:00 15.9 17 Este 26 Este 0 -- -- 56
2020-03-18 15:00:00 17.3 13 Este 28 Este 0 -- -- 53
2020-03-18 14:00:00 15.9 17 Este 31 Este 0 -- -- 56
2020-03-18 13:00:00 15.2 19 Este 29 Este 0 -- -- 58
2020-03-18 12:00:00 13.6 17 Este 26 Este 0 -- -- 63
2020-03-18 11:00:00 11.7 17 Este 28 Este 0 -- -- 68
2020-03-18 10:00:00 9.4 11 Este 14 Este 0 -- -- 78
2020-03-18 09:00:00 6.1 4 Este 6 Este 0 -- -- 93
2020-03-18 08:00:00 5.2 5 Este 9 Este 0 -- -- 95
2020-03-18 07:00:00 5.3 6 Este 10 Nordeste 0 -- -- 95
2020-03-18 06:00:00 5.4 6 Este 11 Este 0 -- -- 95
2020-03-18 05:00:00 6.7 7 Este 11 Este 0 -- -- 92
2020-03-18 04:00:00 7.5 8 Este 16 Este 0 -- -- 91
2020-03-18 03:00:00 7.7 10 Este 19 Este 0 -- -- 91
2020-03-18 02:00:00 8 10 Este 21 Este 0 -- -- 90
2020-03-18 01:00:00 8.2 11 Este 21 Este 0 -- -- 90
2020-03-18 00:00:00 8.8 13 Este 19 Este 0 -- -- 89
2020-03-17 23:00:00 8.8 12 Este 23 Este 0 -- -- 89
2020-03-17 22:00:00 9.5 14 Este 25 Este 0 -- -- 85
2020-03-17 21:00:00 9.6 16 Este 26 Este 0 -- -- 86
2020-03-17 20:00:00 9.7 15 Este 35 Este 0 -- -- 87
2020-03-17 19:00:00 10 23 Este 39 Este 0 -- -- 85
2020-03-17 18:00:00 10.8 28 Este 38 Este 0 -- -- 83
2020-03-17 17:00:00 11.8 27 Sudeste 41 Sudeste 0 -- -- 78
2020-03-17 16:00:00 11.8 27 Este 40 Sudeste 0 -- -- 81
2020-03-17 15:00:00 10.3 26 Este 44 Este 0 -- -- 85
2020-03-17 14:00:00 9.6 24 Este 48 Este 0 -- -- 89
2020-03-17 13:00:00 9.9 30 Este 45 Este 0 -- -- 88
2020-03-17 12:00:00 8.7 23 Este 44 Este 0 -- -- 93
2020-03-17 11:00:00 7.9 26 Este 39 Este 0 -- -- 91
2020-03-17 10:00:00 7.4 15 Este 22 Este 0.2 -- -- 91
2020-03-17 09:00:00 7.3 15 Este 23 Este 0 -- -- 89
2020-03-17 08:00:00 6.6 11 Este 21 Este 0 -- -- 91
2020-03-17 07:00:00 6.2 12 Este 36 Este 0.8 -- -- 92
2020-03-17 06:00:00 7.6 26 Este 38 Este 0 -- -- 82
2020-03-17 05:00:00 7.6 21 Este 37 Este 0 -- -- 82
2020-03-17 04:00:00 7.3 24 Este 45 Este 0 -- -- 80
2020-03-17 03:00:00 7.3 28 Este 45 Este 0 -- -- 79
2020-03-17 02:00:00 7.3 28 Este 46 Este 0 -- -- 80
2020-03-17 01:00:00 7.5 32 Este 47 Este 0 -- -- 75
2020-03-17 00:00:00 7.4 35 Este 58 Nordeste 0 -- -- 77
2020-03-16 23:00:00 6.8 26 Este 44 Este 0.2 -- -- 80
2020-03-16 22:00:00 3.9 3 Oeste 9 Sudoeste 0 -- -- 97
2020-03-16 21:00:00 2.8 0 Calma 6 Nordeste 0 -- -- 96
2020-03-16 20:00:00 2.6 2 Nordeste 9 Norte 2.6 -- -- 96
2020-03-16 19:00:00 2.6 4 Este 6 Noroeste 3.6 -- -- 96
2020-03-16 18:00:00 2.8 3 Oeste 14 Sudoeste 2.8 -- -- 96
2020-03-16 17:00:00 3.2 6 Sur 11 Sur 3.2 -- -- 94
2020-03-16 16:00:00 4.5 3 Este 18 Este 0.8 -- -- 88
2020-03-16 15:00:00 4.3 10 Este 26 Este 1.6 -- -- 89
2020-03-16 14:00:00 3.6 12 Sudeste 22 Sudeste 3.6 -- -- 92
2020-03-16 13:00:00 4.8 5 Este 8 Este 3.6 -- -- 92
2020-03-16 12:00:00 1.3 0 Calma 0 Calma 1.8 -- -- 95
2020-03-16 11:00:00 0.9 0 Calma -- -- 1.2 -- -- 96
2020-03-16 10:00:00 0.3 0 Calma -- -- 0.8 -- -- 98
2020-03-16 09:00:00 0.2 0 Calma -- -- 0.6 -- -- 98
2020-03-16 08:00:00 -0.1 0 Calma 11 Oeste 0.2 -- -- 98
2020-03-16 07:00:00 0.2 3 Sudoeste 7 Nordeste 0.6 -- -- 98
2020-03-16 06:00:00 0.6 4 Norte 14 Sudoeste 1.4 -- -- 97
2020-03-16 05:00:00 1.9 13 Oeste 23 Sudoeste 4 -- -- 96
2020-03-16 04:00:00 3.4 15 Sudoeste 37 Sudoeste 3.4 -- -- 95
2020-03-16 03:00:00 5.2 4 Este 14 Sur 3.2 -- -- 96
2020-03-16 02:00:00 5.7 8 Sudeste 29 Sudeste 1.6 -- -- 95
2020-03-16 01:00:00 5.9 5 Nordeste 12 Sudoeste 2 -- -- 94
2020-03-16 00:00:00 6.5 7 Sudeste 14 Este 5.6 -- -- 92
2020-03-15 23:00:00 6.6 2 Nordeste 15 Sur 2 -- -- 93
2020-03-15 22:00:00 5.5 0 Calma 61 Sudoeste 7.4 -- -- 93
2020-03-15 21:00:00 9.1 13 Sur 26 Sudoeste 1 -- -- 90
2020-03-15 20:00:00 9.3 10 Sur 18 Sudeste 0.8 -- -- 86
2020-03-15 19:00:00 9.6 5 Sur 44 Oeste 6.4 -- -- 88
2020-03-15 18:00:00 11.7 29 Oeste 50 Oeste 0.4 -- -- 71
2020-03-15 17:00:00 16.7 19 Sudoeste 28 Sudoeste 0 -- -- 44
2020-03-15 16:00:00 17.8 8 Oeste 43 Oeste 0.2 -- -- 46
2020-03-15 15:00:00 15.9 11 Oeste 30 Oeste 0 -- -- 54
2020-03-15 14:00:00 17.8 17 Sudoeste 33 Oeste 0 -- -- 40
2020-03-15 13:00:00 17.3 12 Oeste 19 Oeste 0 -- -- 44
2020-03-15 12:00:00 19.9 4 Sudeste 13 Este 0 -- -- 41
2020-03-15 11:00:00 15.9 9 Este 16 Este 0 -- -- 51
2020-03-15 10:00:00 11.4 8 Este 12 Este 0 -- -- 59
2020-03-15 09:00:00 3.6 3 Este 5 Este 0 -- -- 82
2020-03-15 08:00:00 -0.3 4 Este 7 Este 0 -- -- 91
2020-03-15 07:00:00 -1.3 0 Calma 5 Este 0 -- -- 92
2020-03-15 06:00:00 -0.6 0 Calma 6 Este 0 -- -- 91
2020-03-15 05:00:00 0.2 2 Este 4 Este 0 -- -- 89
2020-03-15 04:00:00 0.9 2 Este 8 Este 0 -- -- 87
2020-03-15 03:00:00 1.4 5 Nordeste 9 Nordeste 0 -- -- 85
2020-03-15 02:00:00 1.3 4 Este 6 Este 0 -- -- 86
2020-03-15 01:00:00 2 3 Nordeste 6 Este 0 -- -- 83
2020-03-15 00:00:00 2.8 2 Este 4 Este 0 -- -- 80
2020-03-14 23:00:00 4.3 2 Este 6 Este 0 -- -- 75
2020-03-14 22:00:00 5.5 6 Nordeste 12 Nordeste 0 -- -- 70
2020-03-14 21:00:00 9.5 3 Este 13 Oeste 0 -- -- 51
2020-03-14 20:00:00 11.5 10 Oeste 12 Oeste 0 -- -- 43
2020-03-14 19:00:00 14.7 8 Oeste 14 Oeste 0 -- -- 34
2020-03-14 18:00:00 18.6 6 Noroeste 14 Noroeste 0 -- -- 26
2020-03-14 17:00:00 19 5 Noroeste 15 Noroeste 0 -- -- 29
2020-03-14 16:00:00 18.2 9 Norte 16 Norte 0 -- -- 24
2020-03-14 15:00:00 17.7 8 Noroeste 14 Noroeste 0 -- -- 27
2020-03-14 14:00:00 16.1 5 Sudoeste 13 Oeste 0 -- -- 46
2020-03-14 13:00:00 13.3 8 Sudoeste 17 Oeste 0 -- -- 64
2020-03-14 12:00:00 12 2 Norte 10 Sudoeste 0 -- -- 68
2020-03-14 11:00:00 6.5 3 Sudoeste 9 Oeste 0 -- -- 93
2020-03-14 10:00:00 5.4 0 Calma 5 Sudoeste 0 -- -- 95
2020-03-14 09:00:00 3.3 0 Calma 3 Este 0 -- -- 96
2020-03-14 08:00:00 1.5 0 Calma 4 Sudeste 0 -- -- 96
2020-03-14 07:00:00 0.9 2 Este 4 Sudeste 0 -- -- 96
2020-03-14 06:00:00 1 0 Calma 4 Sudeste 0 -- -- 96
2020-03-14 05:00:00 2 0 Calma 5 Sur 0 -- -- 96
2020-03-14 04:00:00 2.6 2 Este 8 Norte 0 -- -- 94
2020-03-14 03:00:00 3.1 2 Sur 8 Sudeste 0 -- -- 93
2020-03-14 02:00:00 4.5 0 Calma 4 Sur 0 -- -- 92
2020-03-14 01:00:00 5.8 2 Sudeste 4 Sudeste 0 -- -- 89
2020-03-14 00:00:00 6.6 2 Este 4 Este 0 -- -- 85
2020-03-13 23:00:00 8.2 2 Sudeste 6 Este 0 -- -- 80
2020-03-13 22:00:00 9.9 3 Sur 12 Sudeste 0 -- -- 75
2020-03-13 21:00:00 11.4 4 Sur 17 Oeste 0 -- -- 72
2020-03-13 20:00:00 13.3 7 Oeste 24 Oeste 0 -- -- 66
2020-03-13 19:00:00 15.6 4 Sudeste 15 Sudeste 0 -- -- 59
2020-03-13 18:00:00 16.9 9 Sudeste 13 Sudeste 0 -- -- 54
2020-03-13 17:00:00 19.5 4 Este 10 Este 0 -- -- 48
2020-03-13 16:00:00 19.5 8 Este 18 Este 0 -- -- 46
2020-03-13 15:00:00 19.5 9 Este 24 Este 0 -- -- 46
2020-03-13 14:00:00 17.6 13 Este 26 Sudeste 0 -- -- 50
2020-03-13 13:00:00 16.1 15 Sudeste 26 Este 0 -- -- 56
2020-03-13 12:00:00 14.6 14 Sudeste 26 Este 0 -- -- 61
2020-03-13 11:00:00 12.9 19 Este 26 Este 0 -- -- 64
2020-03-13 10:00:00 10.8 13 Este 21 Sudeste 0 -- -- 73
2020-03-13 09:00:00 9.1 8 Este 11 Este 0 -- -- 85
2020-03-13 08:00:00 6.3 4 Este 10 Este 0 -- -- 93
2020-03-13 07:00:00 7 6 Este 19 Este 0 -- -- 93
2020-03-13 06:00:00 7.1 8 Este 12 Este 0 -- -- 93
2020-03-13 05:00:00 7.6 8 Este 15 Este 0 -- -- 91
2020-03-13 04:00:00 7.9 6 Este 12 Este 0 -- -- 89
2020-03-13 03:00:00 8.8 6 Este 13 Sudeste 0 -- -- 86
2020-03-13 02:00:00 9.3 7 Este 10 Este 0 -- -- 85
2020-03-13 01:00:00 10 0 Calma 8 Sudoeste 0 -- -- 81
2020-03-13 00:00:00 10.7 3 Oeste 11 Oeste 0 -- -- 78
2020-03-12 23:00:00 12.1 12 Oeste 18 Oeste 0 -- -- 74
2020-03-12 22:00:00 12.7 4 Nordeste 12 Oeste 0 -- -- 68
2020-03-12 21:00:00 15.3 5 Oeste 13 Norte 0 -- -- 54
2020-03-12 20:00:00 16.7 8 Norte 19 Noroeste 0 -- -- 52
2020-03-12 19:00:00 19.3 17 Oeste 23 Noroeste 0 -- -- 46
2020-03-12 18:00:00 22.3 9 Noroeste 19 Noroeste 0 -- -- 36
2020-03-12 17:00:00 23.6 16 Noroeste 29 Oeste 0 -- -- 33
2020-03-12 16:00:00 25.1 10 Sudoeste 22 Oeste 0 -- -- 29
2020-03-12 15:00:00 23.8 13 Noroeste 28 Oeste 0 -- -- 35
2020-03-12 14:00:00 23.5 12 Noroeste 20 Noroeste 0 -- -- 34
2020-03-12 13:00:00 23.9 3 Norte 6 Norte 0 -- -- 35
2020-03-12 12:00:00 20.9 5 Este 8 Nordeste 0 -- -- 47
2020-03-12 11:00:00 19.9 5 Este 10 Este 0 -- -- 51
2020-03-12 10:00:00 13.7 4 Este 7 Este 0 -- -- 65
2020-03-12 09:00:00 7.1 3 Este 7 Este 0 -- -- 83
2020-03-12 08:00:00 3.8 4 Este 6 Este 0 -- -- 93
2020-03-12 07:00:00 3.1 2 Este 5 Este 0 -- -- 93
2020-03-12 06:00:00 3.6 3 Nordeste 10 Nordeste 0 -- -- 93
2020-03-12 05:00:00 4.1 7 Nordeste 10 Nordeste 0 -- -- 93
2020-03-12 04:00:00 4.6 2 Nordeste 7 Este 0 -- -- 92
2020-03-12 03:00:00 5.4 2 Nordeste 6 Nordeste 0 -- -- 89
2020-03-12 02:00:00 6.2 4 Nordeste 6 Este 0 -- -- 86
2020-03-12 01:00:00 7 3 Este 7 Nordeste 0 -- -- 85
2020-03-12 00:00:00 8 4 Este 5 Este 0 -- -- 81
2020-03-11 23:00:00 9.5 2 Este 5 Nordeste 0 -- -- 78
2020-03-11 22:00:00 11.6 0 Calma 4 Este 0 -- -- 70
2020-03-11 21:00:00 13.8 3 Este 11 Este 0 -- -- 61
2020-03-11 20:00:00 15.8 5 Este 12 Noroeste 0 -- -- 54
2020-03-11 19:00:00 17.6 11 Noroeste 17 Oeste 0 -- -- 47
2020-03-11 18:00:00 21.6 18 Oeste 28 Oeste 0 -- -- 36
2020-03-11 17:00:00 22.7 20 Oeste 30 Oeste 0 -- -- 34
2020-03-11 16:00:00 22.9 18 Noroeste 33 Oeste 0 -- -- 32
2020-03-11 15:00:00 22.9 12 Oeste 27 Oeste 0 -- -- 35
2020-03-11 14:00:00 21.4 14 Oeste 22 Oeste 0 -- -- 38
2020-03-11 13:00:00 20.7 9 Oeste 17 Oeste 0 -- -- 41
2020-03-11 12:00:00 20.2 2 Norte 8 Norte 0 -- -- 42
2020-03-11 11:00:00 16.2 4 Sur 6 Sur 0 -- -- 52
2020-03-11 10:00:00 10.5 0 Calma 5 Este 0 -- -- 70
2020-03-11 09:00:00 3.7 2 Este 4 Sudeste 0 -- -- 94
2020-03-11 08:00:00 0.5 0 Calma 5 Este 0 -- -- 98
2020-03-11 07:00:00 0.3 0 Calma 4 Nordeste 0 -- -- 97
2020-03-11 06:00:00 1.1 0 Calma 2 Este 0 -- -- 97
2020-03-11 05:00:00 2.2 0 Calma 6 Este 0 -- -- 96
2020-03-11 04:00:00 2.3 5 Sudeste 6 Este 0 -- -- 95
2020-03-11 03:00:00 3 0 Calma 4 Sudeste 0 -- -- 94
2020-03-11 02:00:00 3.7 0 Calma 4 Sudeste 0 -- -- 94
2020-03-11 01:00:00 4.5 3 Sudeste 6 Sur 0 -- -- 91
2020-03-11 00:00:00 5.5 3 Sudeste 5 Sur 0 -- -- 88
2020-03-10 23:00:00 8.1 0 Calma 3 Sudeste 0 -- -- 81
2020-03-10 22:00:00 9.3 0 Calma 6 Sur 0 -- -- 78
2020-03-10 21:00:00 10.6 3 Sudeste 6 Este 0 -- -- 71
2020-03-10 20:00:00 13 4 Noroeste 10 Noroeste 0 -- -- 62
2020-03-10 19:00:00 15.8 6 Noroeste 21 Noroeste 0 -- -- 54
2020-03-10 18:00:00 18.6 13 Noroeste 26 Oeste 0 -- -- 44
2020-03-10 17:00:00 18.7 16 Noroeste 27 Noroeste 0 -- -- 44
2020-03-10 16:00:00 18.2 11 Noroeste 22 Oeste 0 -- -- 43
2020-03-10 15:00:00 17 14 Noroeste 28 Oeste 0 -- -- 46
2020-03-10 14:00:00 16.4 17 Oeste 28 Oeste 0 -- -- 45
2020-03-10 13:00:00 15 16 Oeste 24 Oeste 0 -- -- 50
2020-03-10 12:00:00 13.4 11 Noroeste 21 Noroeste 0 -- -- 50
2020-03-10 11:00:00 11.5 13 Oeste 19 Oeste 0 -- -- 57
2020-03-10 10:00:00 8.9 7 Oeste 12 Noroeste 0 -- -- 65
2020-03-10 09:00:00 5.8 2 Norte 4 Este 0 -- -- 79
2020-03-10 08:00:00 3.3 0 Calma 6 Sudeste 0 -- -- 83
2020-03-10 07:00:00 4.3 3 Noroeste 12 Noroeste 0 -- -- 77
2020-03-10 06:00:00 2.8 0 Calma 6 Noroeste 0 -- -- 82
2020-03-10 05:00:00 2.8 0 Calma 5 Este 0 -- -- 82
2020-03-10 04:00:00 3.6 0 Calma 12 Oeste 0 -- -- 79
2020-03-10 03:00:00 3.9 10 Oeste 13 Oeste 0 -- -- 78
2020-03-10 02:00:00 4.2 11 Oeste 15 Oeste 0 -- -- 76
2020-03-10 01:00:00 5.3 12 Oeste 24 Oeste 0 -- -- 70
2020-03-10 00:00:00 6.8 18 Oeste 24 Oeste 0 -- -- 62
2020-03-09 23:00:00 7.2 18 Oeste 26 Noroeste 0 -- -- 63
2020-03-09 22:00:00 7.3 17 Noroeste 25 Oeste 0 -- -- 64
2020-03-09 21:00:00 8.3 7 Noroeste 33 Noroeste 0 -- -- 58
2020-03-09 20:00:00 9.5 19 Noroeste 33 Noroeste 0 -- -- 54
2020-03-09 19:00:00 10.3 21 Noroeste 32 Noroeste 0 -- -- 52
2020-03-09 18:00:00 11.4 25 Noroeste 45 Oeste 0 -- -- 44
2020-03-09 17:00:00 12.5 29 Noroeste 44 Oeste 0 -- -- 46
2020-03-09 16:00:00 11.7 31 Oeste 45 Oeste 0 -- -- 47
2020-03-09 15:00:00 11.2 34 Oeste 51 Oeste 0 -- -- 51
2020-03-09 14:00:00 10.9 30 Oeste 51 Oeste 0 -- -- 55
2020-03-09 13:00:00 9.5 24 Oeste 38 Oeste 0 -- -- 61
2020-03-09 12:00:00 8.7 22 Oeste 36 Oeste 0 -- -- 67
2020-03-09 11:00:00 7.1 24 Oeste 32 Oeste 0 -- -- 73
2020-03-09 10:00:00 5.9 18 Oeste 31 Oeste 0 -- -- 81
2020-03-09 09:00:00 4.4 19 Oeste 30 Oeste 0 -- -- 87
2020-03-09 08:00:00 3.8 22 Oeste 33 Oeste 0 -- -- 89
2020-03-09 07:00:00 4.4 24 Oeste 33 Oeste 0 -- -- 89
2020-03-09 06:00:00 4.7 21 Oeste 35 Oeste 0 -- -- 89
2020-03-09 05:00:00 4.6 19 Oeste 30 Oeste 0 -- -- 91
2020-03-09 04:00:00 5.1 21 Oeste 35 Oeste 0 -- -- 89
2020-03-09 03:00:00 5.8 26 Oeste 38 Oeste 0 -- -- 86
2020-03-09 02:00:00 7.1 26 Oeste 39 Oeste 0 -- -- 87
2020-03-09 01:00:00 7.4 24 Oeste 35 Oeste 0 -- -- 87
2020-03-09 00:00:00 7.9 24 Oeste 44 Oeste 0 -- -- 83
2020-03-08 23:00:00 8.7 16 Oeste 26 Oeste 0 -- -- 81
2020-03-08 22:00:00 7.3 4 Sudoeste 7 Oeste 0 -- -- 76
2020-03-08 21:00:00 6.1 3 Noroeste 14 Sudoeste 0 -- -- 77
2020-03-08 20:00:00 8 10 Oeste 24 Oeste 0 -- -- 67
2020-03-08 19:00:00 10.5 18 Oeste 27 Oeste 0 -- -- 57
2020-03-08 18:00:00 11.8 21 Oeste 31 Oeste 0 -- -- 49
2020-03-08 17:00:00 12 22 Oeste 35 Oeste 0 -- -- 52
2020-03-08 16:00:00 11.9 27 Oeste 37 Oeste 0 -- -- 52
2020-03-08 15:00:00 12.3 20 Noroeste 37 Oeste 0 -- -- 57
2020-03-08 14:00:00 12.5 20 Oeste 32 Oeste 0 -- -- 55
2020-03-08 13:00:00 10.5 16 Oeste 25 Oeste 0 -- -- 64
2020-03-08 12:00:00 9.4 10 Oeste 25 Oeste 0 -- -- 69
2020-03-08 11:00:00 7.8 14 Oeste 21 Oeste 0 -- -- 71
2020-03-08 10:00:00 3.7 3 Sudeste 5 Sudeste 0 -- -- 83
2020-03-08 09:00:00 -0.3 2 Sudeste 4 Este 0 -- -- 94
2020-03-08 08:00:00 -3.3 0 Calma 3 Este 0 -- -- 97
2020-03-08 07:00:00 -2.8 0 Calma 3 Este 0 -- -- 98
2020-03-08 06:00:00 -3.1 2 Sudeste 4 Sudeste 0 -- -- 97
2020-03-08 05:00:00 -3.3 0 Calma 3 Sudeste 0 -- -- 97
2020-03-08 04:00:00 -2.4 0 Calma 3 Sudeste 0 -- -- 97
2020-03-08 03:00:00 -1.6 0 Calma 3 Sudeste 0 -- -- 96
2020-03-08 02:00:00 -1.3 2 Sudeste 4 Sudeste 0 -- -- 95
2020-03-08 01:00:00 -0.8 2 Sudeste 2 Sudeste 0 -- -- 94
2020-03-08 00:00:00 0.2 2 Sudeste 3 Sudeste 0 -- -- 93
2020-03-07 23:00:00 1.6 3 Sudeste 4 Sudeste 0 -- -- 90
2020-03-07 22:00:00 4.2 3 Oeste 9 Oeste 0 -- -- 82
2020-03-07 21:00:00 5.1 8 Oeste 11 Oeste 0 -- -- 78
2020-03-07 20:00:00 6.4 8 Oeste 11 Oeste 0 -- -- 74
2020-03-07 19:00:00 8.3 9 Oeste 21 Noroeste 0 -- -- 66
2020-03-07 18:00:00 9.9 18 Noroeste 38 Oeste 0 -- -- 59
2020-03-07 17:00:00 10.5 27 Noroeste 42 Oeste 0 -- -- 58
2020-03-07 16:00:00 10.2 26 Oeste 39 Oeste 0 -- -- 60
2020-03-07 15:00:00 11.2 22 Noroeste 35 Noroeste 0 -- -- 56
2020-03-07 14:00:00 10.8 20 Noroeste 38 Noroeste 0 -- -- 58
2020-03-07 13:00:00 9 26 Noroeste 40 Noroeste 0 -- -- 67
2020-03-07 12:00:00 7.5 27 Noroeste 42 Noroeste 0 -- -- 70
2020-03-07 11:00:00 5.3 28 Noroeste 41 Noroeste 0 -- -- 76
2020-03-07 10:00:00 4.2 18 Noroeste 33 Oeste 0 -- -- 76
2020-03-07 09:00:00 2.2 23 Oeste 37 Oeste 0 -- -- 80
2020-03-07 08:00:00 1 26 Oeste 34 Oeste 0 -- -- 81
2020-03-07 07:00:00 1.2 19 Oeste 27 Oeste 0 -- -- 76
2020-03-07 06:00:00 1.4 23 Oeste 40 Oeste 0 -- -- 74
2020-03-07 05:00:00 1.5 29 Oeste 38 Oeste 0 -- -- 77
2020-03-07 04:00:00 1.3 28 Oeste 34 Oeste 0 -- -- 80
2020-03-07 03:00:00 1 22 Oeste 27 Sudoeste 0 -- -- 85
2020-03-07 02:00:00 1 15 Oeste 23 Oeste 0 -- -- 83
2020-03-07 01:00:00 1 17 Oeste 26 Oeste 0 -- -- 82
2020-03-07 00:00:00 2.2 15 Oeste 22 Oeste 0 -- -- 77
2020-03-06 23:00:00 2.5 14 Oeste 31 Noroeste 0 -- -- 72
2020-03-06 22:00:00 3.3 24 Noroeste 35 Noroeste 0 -- -- 64
2020-03-06 21:00:00 3.5 19 Noroeste 33 Norte 0 -- -- 65
2020-03-06 20:00:00 3.9 13 Noroeste 38 Noroeste 0 -- -- 67
2020-03-06 19:00:00 4.5 17 Noroeste 45 Noroeste 0 -- -- 62
2020-03-06 18:00:00 6.2 25 Noroeste 53 Noroeste 0 -- -- 52
2020-03-06 17:00:00 6.8 32 Noroeste 59 Noroeste 0 -- -- 49
2020-03-06 16:00:00 6.8 39 Noroeste 55 Noroeste 0 -- -- 52
2020-03-06 15:00:00 5.8 31 Noroeste 53 Noroeste 0 -- -- 58
2020-03-06 14:00:00 6.2 29 Noroeste 63 Noroeste 0 -- -- 52
2020-03-06 13:00:00 4.5 42 Noroeste 69 Noroeste 0 -- -- 72
2020-03-06 12:00:00 5.8 42 Oeste 71 Oeste 0 -- -- 68
2020-03-06 11:00:00 4.3 37 Oeste 65 Noroeste 0 -- -- 74
2020-03-06 10:00:00 4.6 36 Oeste 66 Oeste 0 -- -- 75
2020-03-06 09:00:00 3.5 44 Oeste 66 Oeste 0 -- -- 81
2020-03-06 08:00:00 3.3 46 Oeste 65 Oeste 0 -- -- 82
2020-03-06 07:00:00 3.6 38 Oeste 60 Oeste 0 -- -- 85
2020-03-06 06:00:00 4.1 41 Oeste 57 Oeste 0 -- -- 84
2020-03-06 05:00:00 3.9 27 Oeste 46 Oeste 1.2 -- -- 88
2020-03-06 04:00:00 3.7 23 Oeste 38 Oeste 0 -- -- 85
2020-03-06 03:00:00 3.8 24 Oeste 42 Oeste 0 -- -- 84
2020-03-06 02:00:00 3.3 21 Oeste 34 Oeste 0 -- -- 85
2020-03-06 01:00:00 3.6 23 Oeste 38 Oeste 0 -- -- 78
2020-03-06 00:00:00 4.9 25 Oeste 40 Oeste 0 -- -- 76
2020-03-05 23:00:00 5.4 18 Oeste 33 Oeste 0 -- -- 78
2020-03-05 22:00:00 5 16 Oeste 25 Oeste 0 -- -- 78
2020-03-05 21:00:00 5.9 13 Noroeste 31 Noroeste 0 -- -- 76
2020-03-05 20:00:00 6.8 26 Noroeste 44 Oeste 0 -- -- 74
2020-03-05 19:00:00 7.8 33 Oeste 51 Oeste 0 -- -- 77
2020-03-05 18:00:00 9.7 37 Oeste 61 Oeste 0 -- -- 68
2020-03-05 17:00:00 10.2 37 Oeste 60 Oeste 0 -- -- 63
2020-03-05 16:00:00 9.8 37 Oeste 70 Oeste 0 -- -- 64
2020-03-05 15:00:00 10.5 51 Oeste 69 Oeste 0 -- -- 62
2020-03-05 14:00:00 10.5 46 Oeste 78 Oeste 0 -- -- 61
2020-03-05 13:00:00 9.2 49 Oeste 72 Oeste 0 -- -- 68
2020-03-05 12:00:00 7.7 36 Oeste 76 Oeste 0 -- -- 78
2020-03-05 11:00:00 7.6 50 Oeste 77 Oeste 0.8 -- -- 88
2020-03-05 10:00:00 9.4 23 Sudoeste 37 Sudoeste 0 -- -- 83
2020-03-05 09:00:00 9.7 24 Sudoeste 37 Oeste 0 -- -- 78
2020-03-05 08:00:00 9.8 22 Oeste 32 Oeste 0 -- -- 78
2020-03-05 07:00:00 10.2 23 Oeste 36 Oeste 0 -- -- 77
2020-03-05 06:00:00 10.2 22 Oeste 32 Oeste 0 -- -- 79
2020-03-05 05:00:00 9.9 28 Oeste 39 Oeste 0 -- -- 82
2020-03-05 04:00:00 9.7 15 Oeste 37 Oeste 0 -- -- 85
2020-03-05 03:00:00 9.9 27 Oeste 39 Oeste 0 -- -- 84
2020-03-05 02:00:00 9.9 27 Oeste 36 Oeste 0 -- -- 83
2020-03-05 01:00:00 9.9 23 Oeste 37 Oeste 0 -- -- 83
2020-03-05 00:00:00 9.7 23 Oeste 33 Oeste 0 -- -- 82
2020-03-04 23:00:00 9.8 16 Oeste 26 Oeste 0 -- -- 81
2020-03-04 22:00:00 10.1 16 Oeste 23 Oeste 0 -- -- 82
2020-03-04 21:00:00 10.4 15 Oeste 22 Oeste 0 -- -- 80
2020-03-04 20:00:00 10.7 15 Oeste 28 Oeste 0 -- -- 79
2020-03-04 19:00:00 11.1 18 Oeste 29 Oeste 0 -- -- 77
2020-03-04 18:00:00 11.7 17 Oeste 30 Oeste 0 -- -- 74
2020-03-04 17:00:00 11.8 23 Oeste 35 Oeste 0 -- -- 70
2020-03-04 16:00:00 11.7 24 Oeste 38 Oeste 0 -- -- 72
2020-03-04 15:00:00 11.1 24 Oeste 39 Oeste 0 -- -- 77
2020-03-04 14:00:00 11.1 25 Oeste 40 Oeste 0 -- -- 74
2020-03-04 13:00:00 11.4 34 Oeste 46 Oeste 0 -- -- 74
2020-03-04 12:00:00 11.3 30 Oeste 45 Oeste 0 -- -- 76
2020-03-04 11:00:00 10.5 29 Oeste 44 Oeste 0 -- -- 82
2020-03-04 10:00:00 10.2 28 Oeste 44 Oeste 0 -- -- 84
2020-03-04 09:00:00 10 23 Oeste 44 Oeste 0 -- -- 86
2020-03-04 08:00:00 9.9 31 Oeste 49 Oeste 0 -- -- 89
2020-03-04 07:00:00 10 33 Oeste 51 Oeste 0 -- -- 90
2020-03-04 06:00:00 10.2 31 Oeste 47 Oeste 0 -- -- 91
2020-03-04 05:00:00 10.1 27 Oeste 50 Oeste 0 -- -- 92
2020-03-04 04:00:00 9.7 21 Oeste 30 Oeste 0.4 -- -- 95
2020-03-04 03:00:00 9.4 19 Oeste 31 Oeste 0 -- -- 93
2020-03-04 02:00:00 9.6 24 Oeste 42 Oeste 0 -- -- 89
2020-03-04 01:00:00 8.8 24 Oeste 32 Oeste 0 -- -- 76
2020-03-04 00:00:00 9 22 Oeste 31 Oeste 0 -- -- 66